createdAt,value
2023-01-03T00:00:23.214Z,5.10
2023-01-03T00:02:51.351Z,7.80
2023-01-03T00:05:19.473Z,11.32
2023-01-03T00:07:47.577Z,9.57
2023-01-03T00:10:15.975Z,8.30
2023-01-03T00:12:43.132Z,3.88
2023-01-03T00:15:14.524Z,4.18
2023-01-03T00:17:44.286Z,6.18
2023-01-03T00:20:12.476Z,9.60
2023-01-03T00:22:40.657Z,8.50
2023-01-03T00:25:09.228Z,7.95
2023-01-03T00:27:37.542Z,6.10
2023-01-03T00:30:06.501Z,7.20
2023-01-03T00:32:34.579Z,9.75
2023-01-03T00:35:05.509Z,10.73
2023-01-03T00:37:33.953Z,5.10
2023-01-03T00:40:01.978Z,7.45
2023-01-03T00:42:30.200Z,6.05
2023-01-03T00:44:58.263Z,5.18
2023-01-03T00:47:26.489Z,6.72
2023-01-03T00:49:54.520Z,1.20
2023-01-03T00:52:23.911Z,6.75
2023-01-03T00:54:52.000Z,14.10
2023-01-03T00:57:20.062Z,7.15
2023-01-03T00:59:48.103Z,8.13
2023-01-03T01:02:16.218Z,10.00
2023-01-03T01:04:44.490Z,9.02
2023-01-03T01:07:12.514Z,9.30
2023-01-03T01:09:42.038Z,10.20
2023-01-03T01:12:10.279Z,9.85
2023-01-03T01:14:38.575Z,18.70
2023-01-03T01:17:08.665Z,11.43
2023-01-03T01:19:40.932Z,9.52
2023-01-03T01:22:10.179Z,7.55
2023-01-03T01:24:38.611Z,18.63
2023-01-03T01:27:08.481Z,5.63
2023-01-03T01:29:38.824Z,8.82
2023-01-03T01:32:07.546Z,13.32
2023-01-03T01:34:36.263Z,5.43
2023-01-03T01:37:04.476Z,18.90
2023-01-03T01:39:32.910Z,15.27
2023-01-03T01:42:21.189Z,13.07
2023-01-03T01:44:57.018Z,9.65
2023-01-03T01:47:35.716Z,14.27
2023-01-03T01:50:14.480Z,7.78
2023-01-03T01:52:47.012Z,5.38
2023-01-03T01:55:19.965Z,7.22
2023-01-03T01:57:48.354Z,10.65
2023-01-03T02:00:17.995Z,10.88
2023-01-03T02:02:49.649Z,8.70
2023-01-03T02:05:20.081Z,12.57
2023-01-03T02:07:50.723Z,16.38
2023-01-03T02:10:20.321Z,9.10
2023-01-03T02:13:07.168Z,7.40
2023-01-03T02:16:05.581Z,9.07
2023-01-03T02:18:46.936Z,11.52
2023-01-03T02:21:43.913Z,7.80
2023-01-03T02:24:44.368Z,12.60
2023-01-03T02:27:37.275Z,12.18
2023-01-03T02:30:27.753Z,9.45
2023-01-03T02:33:04.149Z,14.88
2023-01-03T02:35:39.226Z,5.85
2023-01-03T02:38:19.732Z,12.15
2023-01-03T02:40:56.215Z,13.25
2023-01-03T02:43:30.583Z,11.45
2023-01-03T02:46:06.306Z,9.95
2023-01-03T02:48:42.117Z,12.45
2023-01-03T02:51:15.084Z,14.95
2023-01-03T02:53:49.016Z,10.15
2023-01-03T02:56:22.617Z,18.27
2023-01-03T02:58:58.062Z,11.93
2023-01-03T03:01:31.059Z,18.52
2023-01-03T03:04:01.324Z,9.52
2023-01-03T03:06:37.731Z,20.50
2023-01-03T03:09:06.062Z,9.90
2023-01-03T03:11:54.484Z,16.52
2023-01-03T03:14:26.821Z,13.40
2023-01-03T03:17:01.070Z,19.38
2023-01-03T03:19:48.117Z,15.93
2023-01-03T03:22:41.583Z,11.07
2023-01-03T03:25:15.815Z,18.50
2023-01-03T03:28:03.974Z,9.57
2023-01-03T03:30:35.633Z,15.43
2023-01-03T03:33:07.290Z,22.50
2023-01-03T03:35:42.813Z,17.02
2023-01-03T03:38:15.026Z,15.98
2023-01-03T03:41:12.558Z,8.45
2023-01-03T03:44:06.127Z,4.13
2023-01-03T03:46:47.745Z,9.32
2023-01-03T03:49:39.693Z,10.27
2023-01-03T03:52:13.000Z,16.10
2023-01-03T03:54:47.804Z,23.80
2023-01-03T03:57:23.414Z,20.77
2023-01-03T03:59:55.641Z,16.27
2023-01-03T04:02:28.137Z,23.23
2023-01-03T04:05:02.277Z,21.17
2023-01-03T04:07:30.863Z,25.90
2023-01-03T04:09:58.986Z,16.48
2023-01-03T04:12:27.061Z,13.05
2023-01-03T04:14:57.534Z,4.15
2023-01-03T04:17:25.606Z,12.68
2023-01-03T04:19:53.826Z,14.77
2023-01-03T04:22:23.436Z,6.32
2023-01-03T04:24:51.426Z,21.85
2023-01-03T04:27:19.467Z,11.40
2023-01-03T04:29:47.557Z,10.88
2023-01-03T04:32:15.666Z,10.18
2023-01-03T04:34:43.808Z,16.35
2023-01-03T04:37:11.870Z,4.65
2023-01-03T04:39:41.277Z,3.42
2023-01-03T04:42:23.215Z,4.45
2023-01-03T04:44:51.292Z,2.78
2023-01-03T04:47:19.340Z,5.75
2023-01-03T04:49:47.898Z,1.30
2023-01-03T04:52:16.672Z,0.90
2023-01-03T04:54:46.057Z,6.13
2023-01-03T04:57:14.195Z,4.30
2023-01-03T04:59:42.280Z,1.30
2023-01-03T05:02:10.507Z,0.80
2023-01-03T05:04:38.736Z,1.90
2023-01-03T05:07:06.864Z,3.80
2023-01-03T05:09:34.910Z,0.13
2023-01-03T05:12:04.651Z,1.67
2023-01-03T05:14:32.724Z,0.65
2023-01-03T05:17:00.888Z,1.23
2023-01-03T05:19:29.235Z,3.10
2023-01-03T05:22:15.039Z,1.77
2023-01-03T05:25:00.542Z,6.95
2023-01-03T05:27:30.062Z,3.63
2023-01-03T05:30:01.216Z,2.75
2023-01-03T05:32:29.315Z,2.75
2023-01-03T05:34:57.441Z,4.60
2023-01-03T05:37:25.606Z,4.93
2023-01-03T05:39:53.692Z,2.30
2023-01-03T05:42:21.720Z,5.95
2023-01-03T05:44:51.128Z,3.97
2023-01-03T05:47:19.291Z,9.30
2023-01-03T05:49:47.346Z,5.15
2023-01-03T05:52:15.469Z,5.38
2023-01-03T05:54:43.469Z,6.95
2023-01-03T05:57:11.758Z,6.32
2023-01-03T05:59:39.753Z,3.10
2023-01-03T06:02:09.616Z,7.40
2023-01-03T06:04:37.810Z,7.60
2023-01-03T06:07:06.683Z,4.40
2023-01-03T06:09:34.735Z,8.32
2023-01-03T06:12:02.809Z,4.13
2023-01-03T06:14:30.960Z,5.40
2023-01-03T06:17:17.980Z,6.13
2023-01-03T06:19:47.509Z,5.07
2023-01-03T06:22:15.706Z,12.48
2023-01-03T06:24:43.749Z,6.97
2023-01-03T06:27:12.337Z,8.80
2023-01-03T06:29:41.335Z,3.97
2023-01-03T06:32:10.131Z,8.82
2023-01-03T06:34:38.488Z,3.45
2023-01-03T06:37:08.246Z,3.63
2023-01-03T06:39:36.917Z,10.35
2023-01-03T06:42:20.619Z,8.55
2023-01-03T06:45:09.520Z,12.68
2023-01-03T06:47:56.086Z,6.45
2023-01-03T06:50:42.130Z,7.50
2023-01-03T06:53:15.163Z,6.30
2023-01-03T06:55:44.575Z,9.82
2023-01-03T06:58:13.391Z,7.65
2023-01-03T07:00:44.165Z,9.25
2023-01-03T07:03:13.194Z,7.75
2023-01-03T07:05:41.541Z,10.38
2023-01-03T07:08:09.637Z,4.78
2023-01-03T07:10:39.110Z,6.40
2023-01-03T07:13:24.923Z,12.38
2023-01-03T07:15:53.203Z,7.40
2023-01-03T07:18:21.317Z,7.22
2023-01-03T07:20:49.672Z,7.93
2023-01-03T07:23:17.799Z,13.07
2023-01-03T07:25:47.238Z,15.50
2023-01-03T07:28:16.971Z,19.85
2023-01-03T07:30:46.979Z,18.90
2023-01-03T07:33:17.134Z,12.85
2023-01-03T07:35:46.176Z,9.98
2023-01-03T07:38:15.043Z,6.57
2023-01-03T07:40:43.193Z,16.27
2023-01-03T07:43:30.322Z,15.70
2023-01-03T07:45:58.504Z,10.18
2023-01-03T07:48:26.923Z,15.88
2023-01-03T07:50:58.983Z,17.27
2023-01-03T07:53:27.127Z,17.27
2023-01-03T07:55:55.477Z,14.00
2023-01-03T07:58:25.134Z,13.35
2023-01-03T08:00:53.474Z,18.52
2023-01-03T08:03:21.576Z,18.40
2023-01-03T08:05:49.688Z,12.18
2023-01-03T08:08:17.777Z,10.82
2023-01-03T08:11:05.564Z,19.00
2023-01-03T08:13:35.116Z,9.70
2023-01-03T08:16:03.284Z,16.00
2023-01-03T08:18:31.509Z,6.60
2023-01-03T08:20:59.562Z,11.02
2023-01-03T08:23:28.106Z,16.10
2023-01-03T08:26:02.623Z,21.15
2023-01-03T08:28:31.138Z,20.75
2023-01-03T08:31:02.354Z,18.23
2023-01-03T08:33:35.593Z,17.00
2023-01-03T08:36:08.783Z,16.77
2023-01-03T08:38:42.472Z,17.50
2023-01-03T08:41:12.779Z,14.20
2023-01-03T08:43:43.775Z,21.05
2023-01-03T08:46:15.780Z,11.68
2023-01-03T08:48:45.029Z,13.85
2023-01-03T08:51:14.511Z,17.87
2023-01-03T08:53:43.790Z,13.88
2023-01-03T08:56:12.010Z,13.33
2023-01-03T08:58:40.060Z,16.15
2023-01-03T09:01:08.538Z,15.77
2023-01-03T09:03:41.872Z,20.20
2023-01-03T09:06:10.228Z,16.90
2023-01-03T09:08:38.659Z,10.45
2023-01-03T09:11:07.573Z,23.40
2023-01-03T09:13:36.531Z,25.40
2023-01-03T09:16:07.878Z,25.52
2023-01-03T09:18:38.888Z,28.98
2023-01-03T09:21:08.157Z,22.52
2023-01-03T09:23:37.208Z,21.15
2023-01-03T09:26:06.564Z,12.45
2023-01-03T09:28:35.036Z,23.23
2023-01-03T09:31:03.315Z,16.77
2023-01-03T09:33:31.532Z,17.27
2023-01-03T09:36:01.221Z,21.58
2023-01-03T09:38:29.477Z,19.58
2023-01-03T09:41:04.301Z,17.63
2023-01-03T09:43:41.206Z,20.48
2023-01-03T09:46:24.615Z,22.67
2023-01-03T09:48:55.239Z,24.38
2023-01-03T09:51:44.885Z,18.10
2023-01-03T09:54:32.060Z,28.33
2023-01-03T09:57:20.647Z,20.80
2023-01-03T10:00:08.644Z,27.00
2023-01-03T10:03:13.387Z,23.33
2023-01-03T10:05:58.274Z,19.90
2023-01-03T10:08:39.278Z,20.50
2023-01-03T10:11:15.477Z,18.42
2023-01-03T10:14:08.254Z,23.90
2023-01-03T10:16:49.164Z,15.50
2023-01-03T10:19:44.331Z,15.85
2023-01-03T10:22:19.228Z,27.08
2023-01-03T10:24:51.633Z,19.70
2023-01-03T10:27:22.627Z,14.07
2023-01-03T10:29:53.201Z,9.80
2023-01-03T10:32:51.027Z,15.93
2023-01-03T10:35:21.891Z,21.58
2023-01-03T10:37:53.048Z,18.15
2023-01-03T10:40:33.093Z,16.80
2023-01-03T10:43:09.709Z,14.95
2023-01-03T10:45:52.867Z,18.83
2023-01-03T10:48:21.346Z,10.38
2023-01-03T10:50:51.806Z,10.77
2023-01-03T10:53:24.198Z,12.95
2023-01-03T10:55:55.961Z,8.02
2023-01-03T10:58:34.321Z,7.82
2023-01-03T11:01:22.608Z,6.35
2023-01-03T11:04:18.410Z,4.82
2023-01-03T11:07:00.428Z,5.03
2023-01-03T11:09:34.937Z,3.70
2023-01-03T11:12:13.930Z,1.73
2023-01-03T11:14:52.287Z,3.55
2023-01-03T11:17:22.170Z,6.32
2023-01-03T11:19:51.719Z,8.07
2023-01-03T11:22:37.649Z,6.03
2023-01-03T11:25:22.251Z,5.88
2023-01-03T11:28:16.746Z,6.43
2023-01-03T11:30:55.428Z,3.55
2023-01-03T11:33:39.605Z,7.55
2023-01-03T11:36:26.177Z,1.95
2023-01-03T11:39:09.775Z,5.72
2023-01-03T11:41:54.927Z,8.13
2023-01-03T11:44:55.397Z,5.15
2023-01-03T11:47:32.588Z,5.93
2023-01-03T11:50:16.585Z,5.53
2023-01-03T11:52:52.307Z,4.10
2023-01-03T11:55:49.235Z,9.55
2023-01-03T11:58:48.647Z,3.20
2023-01-03T12:01:32.787Z,4.43
2023-01-03T12:04:24.337Z,2.47
2023-01-03T12:07:37.498Z,2.15
2023-01-03T12:10:03.618Z,2.65
2023-01-03T12:12:50.152Z,4.45
2023-01-03T12:15:29.387Z,7.28
2023-01-03T12:18:03.546Z,0.88
2023-01-03T12:20:37.122Z,1.02
2023-01-03T12:23:16.075Z,0.60
2023-01-03T12:25:50.289Z,0.20
2023-01-03T12:28:22.690Z,2.58
2023-01-03T12:30:58.221Z,0.82
2023-01-03T12:33:35.011Z,2.45
2023-01-03T12:36:12.598Z,1.70
2023-01-03T12:38:45.880Z,1.95
2023-01-03T12:41:33.376Z,2.38
2023-01-03T12:44:12.529Z,3.35
2023-01-03T12:46:46.249Z,3.65
2023-01-03T12:49:22.136Z,2.38
2023-01-03T12:51:53.468Z,3.53
2023-01-03T12:54:37.686Z,1.15
2023-01-03T12:57:23.684Z,4.10
2023-01-03T13:00:23.823Z,1.05
2023-01-03T13:05:32.243Z,1.98
2023-01-03T13:08:40.187Z,1.85
2023-01-03T13:11:16.499Z,2.15
2023-01-03T13:14:17.844Z,3.30
2023-01-03T13:17:08.661Z,2.33
2023-01-03T13:20:25.714Z,1.15
2023-01-03T13:23:06.051Z,1.35
2023-01-03T13:26:01.942Z,1.85
2023-01-03T13:28:34.661Z,3.35
2023-01-03T13:31:46.101Z,1.67
2023-01-03T13:34:20.270Z,2.35
2023-01-03T13:37:21.516Z,1.05
2023-01-03T13:40:20.512Z,1.17
2023-01-03T13:42:48.971Z,1.50
2023-01-03T13:45:56.328Z,1.27
2023-01-03T13:48:28.452Z,3.22
2023-01-03T13:51:48.333Z,1.65
2023-01-03T13:54:38.238Z,0.73
2023-01-03T13:57:35.939Z,0.22
2023-01-03T14:00:11.225Z,1.15
2023-01-03T14:03:08.070Z,1.10
2023-01-03T14:06:18.251Z,1.52
2023-01-03T14:09:29.763Z,0.88
2023-01-03T14:12:21.041Z,1.27
2023-01-03T14:14:54.732Z,1.88
2023-01-03T14:17:28.547Z,1.25
2023-01-03T14:20:00.334Z,0.30
2023-01-03T14:22:38.124Z,0.82
2023-01-03T14:25:08.819Z,0.93
2023-01-03T14:27:43.877Z,1.73
2023-01-03T14:30:23.978Z,0.70
2023-01-03T14:32:52.312Z,0.70
2023-01-03T14:35:34.674Z,2.30
2023-01-03T14:38:06.715Z,0.88
2023-01-03T14:40:35.544Z,1.52
2023-01-03T14:43:06.856Z,1.55
2023-01-03T14:45:34.951Z,1.52
2023-01-03T14:48:03.142Z,1.50
2023-01-03T14:50:33.481Z,1.05
2023-01-03T14:53:03.724Z,2.38
2023-01-03T14:55:33.938Z,1.75
2023-01-03T14:58:06.810Z,1.65
2023-01-03T15:00:40.358Z,1.02
2023-01-03T15:03:13.945Z,1.27
2023-01-03T15:05:46.068Z,1.60
2023-01-03T15:08:23.761Z,2.53
2023-01-03T15:10:59.924Z,2.83
2023-01-03T15:13:34.072Z,1.00
2023-01-03T15:16:07.044Z,1.85
2023-01-03T15:18:38.373Z,1.88
2023-01-03T15:21:07.376Z,2.92
2023-01-03T15:23:39.400Z,4.05
2023-01-03T15:26:08.951Z,1.13
2023-01-03T15:28:38.462Z,1.17
2023-01-03T15:31:30.253Z,3.60
2023-01-03T15:34:15.402Z,1.33
2023-01-03T15:36:49.593Z,2.08
2023-01-03T15:39:20.301Z,1.05
2023-01-03T15:42:34.979Z,2.63
2023-01-03T15:44:55.499Z,1.00
2023-01-03T15:47:30.029Z,1.23
2023-01-03T15:50:01.805Z,1.23
2023-01-03T15:52:30.072Z,2.03
2023-01-03T15:54:58.084Z,0.95
2023-01-03T15:57:32.420Z,1.23
2023-01-03T16:00:07.150Z,3.78
2023-01-03T16:02:38.142Z,1.52
2023-01-03T16:05:08.621Z,1.05
2023-01-03T16:07:37.251Z,3.13
2023-01-03T16:10:06.092Z,1.95
2023-01-03T16:12:37.078Z,1.70
2023-01-03T16:15:08.854Z,1.92
2023-01-03T16:17:41.645Z,2.60
2023-01-03T16:20:16.447Z,1.58
2023-01-03T16:22:58.000Z,1.23
2023-01-03T16:25:29.024Z,1.83
2023-01-03T16:27:57.725Z,2.05
2023-01-03T16:30:25.954Z,3.63
2023-01-03T16:32:55.822Z,3.47
2023-01-03T16:35:24.051Z,1.85
2023-01-03T16:37:52.044Z,2.22
2023-01-03T16:40:22.625Z,5.20
2023-01-03T16:42:50.748Z,1.65
2023-01-03T16:45:19.671Z,1.52
2023-01-03T16:47:50.322Z,1.50
2023-01-03T16:50:22.729Z,1.17
2023-01-03T16:52:53.982Z,1.17
2023-01-03T16:55:26.448Z,4.15
2023-01-03T16:57:55.479Z,5.70
2023-01-03T17:00:28.308Z,1.42
2023-01-03T17:02:59.407Z,1.85
2023-01-03T17:05:32.823Z,1.80
2023-01-03T17:08:05.328Z,1.88
2023-01-03T17:10:36.874Z,3.50
2023-01-03T17:13:12.431Z,3.78
2023-01-03T17:15:41.706Z,1.45
2023-01-03T17:18:18.718Z,1.08
2023-01-03T17:20:53.184Z,2.10
2023-01-03T17:23:21.726Z,3.55
2023-01-03T17:25:51.263Z,8.57
2023-01-03T17:28:20.078Z,2.28
2023-01-03T17:30:50.940Z,6.82
2023-01-03T17:33:19.908Z,12.18
2023-01-03T17:35:49.325Z,5.30
2023-01-03T17:38:26.774Z,2.22
2023-01-03T17:40:57.557Z,3.20
2023-01-03T17:43:26.357Z,1.55
2023-01-03T17:46:19.091Z,1.70
2023-01-03T17:49:08.172Z,3.08
2023-01-03T17:51:38.081Z,1.67
2023-01-03T17:54:06.500Z,1.73
2023-01-03T17:56:34.908Z,4.05
2023-01-03T17:59:04.891Z,3.08
2023-01-03T18:01:34.267Z,1.63
2023-01-03T18:04:02.484Z,1.08
2023-01-03T18:06:32.208Z,1.38
2023-01-03T18:09:04.893Z,4.88
2023-01-03T18:11:33.158Z,3.50
2023-01-03T18:14:01.432Z,3.95
2023-01-03T18:16:29.603Z,3.13
2023-01-03T18:18:57.859Z,1.10
2023-01-03T18:21:27.994Z,4.25
2023-01-03T18:26:33.590Z,3.92
2023-01-03T18:29:01.761Z,3.15
2023-01-03T18:31:32.641Z,2.95
2023-01-03T18:34:04.344Z,1.48
2023-01-03T18:36:37.228Z,1.95
2023-01-03T18:39:08.035Z,2.08
2023-01-03T18:41:37.494Z,2.05
2023-01-03T18:44:06.275Z,2.47
2023-01-03T18:46:34.633Z,2.90
2023-01-03T18:49:03.512Z,8.15
2023-01-03T18:52:07.755Z,13.90
2023-01-03T18:56:15.437Z,11.82
2023-01-03T18:58:46.615Z,4.55
2023-01-03T19:01:58.140Z,5.50
2023-01-03T19:04:51.218Z,3.13
2023-01-03T19:07:24.741Z,4.55
2023-01-03T19:09:52.889Z,4.00
2023-01-03T19:12:21.651Z,2.60
2023-01-03T19:14:51.018Z,2.45
2023-01-03T19:17:21.041Z,1.25
2023-01-03T19:19:49.524Z,2.50
2023-01-03T19:22:25.723Z,1.73
2023-01-03T19:24:54.880Z,2.45
2023-01-03T19:27:25.991Z,3.47
2023-01-03T19:29:55.530Z,0.77
2023-01-03T19:32:28.737Z,1.15
2023-01-03T19:34:57.051Z,1.42
2023-01-03T19:37:25.063Z,1.33
2023-01-03T19:39:53.055Z,0.98
2023-01-03T19:42:39.652Z,1.40
2023-01-03T19:45:18.411Z,2.25
2023-01-03T19:47:46.430Z,1.55
2023-01-03T19:50:20.279Z,1.92
2023-01-03T19:52:51.633Z,0.88
2023-01-03T19:55:20.642Z,0.57
2023-01-03T19:57:51.999Z,3.28
2023-01-03T20:00:26.790Z,0.47
2023-01-03T20:02:58.406Z,5.25
2023-01-03T20:05:30.354Z,1.73
2023-01-03T20:07:58.441Z,2.83
2023-01-03T20:10:28.043Z,1.80
2023-01-03T20:12:57.743Z,0.73
2023-01-03T20:15:29.153Z,1.20
2023-01-03T20:18:00.761Z,1.13
2023-01-03T20:20:32.089Z,0.52
2023-01-03T20:23:05.231Z,1.00
2023-01-03T20:25:37.151Z,0.85
2023-01-03T20:28:06.087Z,0.80
2023-01-03T20:30:36.203Z,0.90
2023-01-03T20:33:04.243Z,1.67
2023-01-03T20:38:27.540Z,1.17
2023-01-03T20:40:56.489Z,0.95
2023-01-03T20:43:25.389Z,0.40
2023-01-03T20:45:58.954Z,1.23
2023-01-03T20:48:27.370Z,1.02
2023-01-03T20:50:55.422Z,1.40
2023-01-03T20:53:25.689Z,1.77
2023-01-03T20:55:54.393Z,3.03
2023-01-03T20:58:25.323Z,2.63
2023-01-03T21:01:04.078Z,2.08
2023-01-03T21:03:34.254Z,1.37
2023-01-03T21:06:02.739Z,1.65
2023-01-03T21:08:48.616Z,4.50
2023-01-03T21:11:19.557Z,3.38
2023-01-03T21:13:47.623Z,1.85
2023-01-03T21:16:30.337Z,3.22
2023-01-03T21:19:03.071Z,0.75
2023-01-03T21:21:32.933Z,0.82
2023-01-03T21:24:01.566Z,0.77
2023-01-03T21:26:35.598Z,1.38
2023-01-03T21:29:03.936Z,2.78
2023-01-03T21:31:34.569Z,2.88
2023-01-03T21:34:02.924Z,1.63
2023-01-03T21:36:32.649Z,0.73
2023-01-03T21:39:01.408Z,1.92
2023-01-03T21:41:31.531Z,0.32
2023-01-03T21:46:30.710Z,0.28
2023-01-03T21:49:16.749Z,0.85
2023-01-03T21:51:44.850Z,1.67
2023-01-03T21:54:13.310Z,1.00
2023-01-03T21:56:46.918Z,1.48
2023-01-03T21:59:16.114Z,0.47
2023-01-03T22:02:03.520Z,1.35
2023-01-03T22:04:35.868Z,4.30
2023-01-03T22:07:04.052Z,2.20
2023-01-03T22:09:50.460Z,0.47
2023-01-03T22:12:19.536Z,2.15
2023-01-03T22:14:47.974Z,1.83
2023-01-03T22:17:17.678Z,2.08
2023-01-03T22:19:48.574Z,1.63
2023-01-03T22:22:16.627Z,0.80
2023-01-03T22:24:44.768Z,1.38
2023-01-03T22:27:12.839Z,0.45
2023-01-03T22:29:41.099Z,1.45
2023-01-03T22:32:10.492Z,0.88
2023-01-03T22:34:39.755Z,0.73
2023-01-03T22:37:09.428Z,1.63
2023-01-03T22:39:37.476Z,1.92
2023-01-03T22:42:05.830Z,1.58
2023-01-03T22:44:33.847Z,1.80
2023-01-03T22:47:02.050Z,0.40
2023-01-03T22:49:30.135Z,1.58
2023-01-03T22:51:58.351Z,1.42
2023-01-03T22:54:27.840Z,3.33
2023-01-03T22:56:56.684Z,1.88
2023-01-03T22:59:25.118Z,2.35
2023-01-03T23:01:53.378Z,2.00
2023-01-03T23:04:22.996Z,5.78
2023-01-03T23:06:51.435Z,3.58
2023-01-03T23:09:19.483Z,2.65
2023-01-03T23:12:07.056Z,2.22
2023-01-03T23:14:35.530Z,4.78
2023-01-03T23:17:17.451Z,4.28
2023-01-03T23:19:45.566Z,8.80
2023-01-03T23:22:13.601Z,6.85
2023-01-03T23:24:41.693Z,10.90
2023-01-03T23:27:11.168Z,4.70
2023-01-03T23:29:39.238Z,13.73
2023-01-03T23:32:07.429Z,17.77
2023-01-03T23:34:35.628Z,7.22
2023-01-03T23:37:03.707Z,12.90
2023-01-03T23:39:31.983Z,4.78
2023-01-03T23:42:00.039Z,7.75
2023-01-03T23:44:29.865Z,4.80
2023-01-03T23:46:57.970Z,8.55
2023-01-03T23:49:26.056Z,8.55
2023-01-03T23:51:54.069Z,5.63
2023-01-03T23:54:22.232Z,6.22
2023-01-03T23:56:50.218Z,9.35
2023-01-03T23:59:18.334Z,3.65
